createdAt,value
2018-02-21T00:01:35.193Z,8.87
2018-02-21T00:04:06.322Z,8.97
2018-02-21T00:06:38.080Z,8.63
2018-02-21T00:09:13.975Z,8.97
2018-02-21T00:11:42.949Z,8.93
2018-02-21T00:14:19.133Z,8.93
2018-02-21T00:16:50.416Z,9.10
2018-02-21T00:19:25.993Z,8.60
2018-02-21T00:22:02.595Z,9.90
2018-02-21T00:24:35.239Z,9.63
2018-02-21T00:27:08.773Z,9.00
2018-02-21T00:29:43.475Z,10.13
2018-02-21T00:32:12.747Z,9.87
2018-02-21T00:34:46.151Z,9.43
2018-02-21T00:37:16.304Z,9.70
2018-02-21T00:39:47.938Z,9.93
2018-02-21T00:42:17.469Z,9.97
2018-02-21T00:44:48.800Z,10.80
2018-02-21T00:47:17.317Z,9.83
2018-02-21T00:49:47.510Z,10.07
2018-02-21T00:52:20.269Z,8.30
2018-02-21T00:54:53.831Z,9.53
2018-02-21T00:57:29.171Z,9.40
2018-02-21T01:00:04.040Z,10.30
2018-02-21T01:02:35.623Z,10.47
2018-02-21T01:05:26.301Z,9.70
2018-02-21T01:07:55.617Z,10.73
2018-02-21T01:10:23.885Z,9.43
2018-02-21T01:12:56.205Z,9.40
2018-02-21T01:15:31.114Z,10.10
2018-02-21T01:18:07.903Z,9.83
2018-02-21T01:20:39.507Z,9.43
2018-02-21T01:23:14.698Z,9.40
2018-02-21T01:25:43.753Z,9.07
2018-02-21T01:28:12.478Z,9.20
2018-02-21T01:30:44.190Z,9.33
2018-02-21T01:33:13.004Z,9.60
2018-02-21T01:35:43.209Z,9.40
2018-02-21T01:38:16.442Z,9.47
2018-02-21T01:40:49.628Z,9.83
2018-02-21T01:43:24.065Z,10.20
2018-02-21T01:46:02.389Z,9.00
2018-02-21T01:48:33.693Z,8.90
2018-02-21T01:51:15.308Z,9.00
2018-02-21T01:53:44.369Z,10.03
2018-02-21T01:56:12.873Z,8.73
2018-02-21T01:58:41.440Z,8.97
2018-02-21T02:01:10.519Z,9.40
2018-02-21T02:03:39.879Z,8.23
2018-02-21T02:06:08.854Z,8.77
2018-02-21T02:08:40.751Z,9.17
2018-02-21T02:11:09.777Z,9.60
2018-02-21T02:13:38.400Z,9.30
2018-02-21T02:16:06.698Z,10.20
2018-02-21T02:18:36.889Z,9.47
2018-02-21T02:21:08.809Z,10.70
2018-02-21T02:23:39.169Z,10.73
2018-02-21T02:26:13.600Z,9.80
2018-02-21T02:28:44.590Z,11.17
2018-02-21T02:31:13.242Z,11.40
2018-02-21T02:33:41.557Z,10.40
2018-02-21T02:36:09.889Z,10.77
2018-02-21T02:38:40.137Z,10.80
2018-02-21T02:41:09.917Z,11.97
2018-02-21T02:43:38.217Z,10.97
2018-02-21T02:46:08.900Z,10.97
2018-02-21T02:48:37.511Z,12.13
2018-02-21T02:51:05.940Z,12.77
2018-02-21T02:53:36.590Z,14.93
2018-02-21T02:56:10.106Z,13.50
2018-02-21T02:58:44.681Z,14.17
2018-02-21T03:01:20.496Z,15.00
2018-02-21T03:03:55.286Z,16.57
2018-02-21T03:06:29.432Z,16.57
2018-02-21T03:09:01.289Z,16.27
2018-02-21T03:11:30.547Z,16.37
2018-02-21T03:13:59.973Z,15.60
2018-02-21T03:16:28.251Z,16.47
2018-02-21T03:18:57.286Z,16.63
2018-02-21T03:21:27.897Z,16.20
2018-02-21T03:24:02.368Z,16.87
2018-02-21T03:26:36.710Z,16.93
2018-02-21T03:29:06.846Z,16.67
2018-02-21T03:31:35.139Z,17.50
2018-02-21T03:34:03.504Z,17.47
2018-02-21T03:36:33.717Z,17.03
2018-02-21T03:39:02.439Z,17.87
2018-02-21T03:41:34.469Z,17.70
2018-02-21T03:44:06.094Z,17.67
2018-02-21T03:46:34.375Z,17.93
2018-02-21T03:49:02.685Z,17.80
2018-02-21T03:51:52.257Z,19.77
2018-02-21T03:54:21.024Z,18.63
2018-02-21T03:56:49.328Z,17.47
2018-02-21T03:59:21.086Z,18.93
2018-02-21T04:01:50.190Z,18.67
2018-02-21T04:04:18.719Z,18.10
2018-02-21T04:06:49.041Z,18.43
2018-02-21T04:09:19.000Z,18.43
2018-02-21T04:11:55.948Z,18.70
2018-02-21T04:14:26.237Z,20.43
2018-02-21T04:16:56.283Z,19.47
2018-02-21T04:19:26.167Z,20.07
2018-02-21T04:22:06.955Z,20.47
2018-02-21T04:24:40.609Z,20.63
2018-02-21T04:27:15.099Z,21.73
2018-02-21T04:29:43.901Z,21.57
2018-02-21T04:32:12.420Z,21.93
2018-02-21T04:34:40.730Z,20.97
2018-02-21T04:37:18.408Z,21.00
2018-02-21T04:39:46.725Z,22.13
2018-02-21T04:42:15.055Z,22.13
2018-02-21T04:44:43.370Z,21.60
2018-02-21T04:47:13.226Z,21.40
2018-02-21T04:49:46.279Z,20.83
2018-02-21T04:52:32.805Z,20.90
2018-02-21T04:55:01.726Z,21.37
2018-02-21T04:57:31.764Z,21.80
2018-02-21T05:00:08.629Z,22.33
2018-02-21T05:02:37.176Z,21.63
2018-02-21T05:05:07.940Z,22.50
2018-02-21T05:07:37.861Z,22.20
2018-02-21T05:10:10.990Z,22.53
2018-02-21T05:12:45.013Z,21.10
2018-02-21T05:15:19.975Z,22.17
2018-02-21T05:17:48.974Z,22.33
2018-02-21T05:20:22.760Z,23.13
2018-02-21T05:23:08.178Z,24.13
2018-02-21T05:25:37.332Z,21.53
2018-02-21T05:28:07.689Z,23.47
2018-02-21T05:30:36.780Z,23.83
2018-02-21T05:33:06.619Z,22.70
2018-02-21T05:35:35.486Z,23.87
2018-02-21T05:38:18.506Z,24.27
2018-02-21T05:40:48.487Z,23.93
2018-02-21T05:43:16.759Z,23.63
2018-02-21T05:45:45.489Z,21.63
2018-02-21T05:48:18.757Z,22.83
2018-02-21T05:50:54.246Z,25.00
2018-02-21T05:53:40.033Z,25.47
2018-02-21T05:56:08.393Z,25.17
2018-02-21T05:58:37.102Z,24.33
2018-02-21T06:01:11.913Z,25.47
2018-02-21T06:03:45.527Z,23.90
2018-02-21T06:06:18.771Z,25.27
2018-02-21T06:09:00.082Z,25.63
2018-02-21T06:11:32.859Z,24.47
2018-02-21T06:14:03.116Z,25.03
2018-02-21T06:16:39.685Z,25.93
2018-02-21T06:19:14.574Z,24.97
2018-02-21T06:21:47.547Z,26.17
2018-02-21T06:24:20.362Z,25.73
2018-02-21T06:26:54.842Z,23.37
2018-02-21T06:29:27.451Z,28.03
2018-02-21T06:31:57.667Z,27.20
2018-02-21T06:34:27.714Z,26.17
2018-02-21T06:36:56.379Z,25.87
2018-02-21T06:39:27.718Z,25.30
2018-02-21T06:41:56.508Z,24.67
2018-02-21T06:44:26.530Z,23.87
2018-02-21T06:47:01.493Z,26.87
2018-02-21T06:49:34.178Z,24.63
2018-02-21T06:52:07.820Z,24.60
2018-02-21T06:54:50.169Z,26.33
2018-02-21T06:57:18.603Z,24.30
2018-02-21T06:59:52.563Z,25.87
2018-02-21T07:02:34.578Z,24.60
2018-02-21T07:05:03.793Z,25.00
2018-02-21T07:07:35.208Z,26.63
2018-02-21T07:10:12.336Z,26.73
2018-02-21T07:12:45.340Z,26.70
2018-02-21T07:15:13.676Z,27.73
2018-02-21T07:17:43.886Z,28.67
2018-02-21T07:20:12.620Z,26.80
2018-02-21T07:22:40.944Z,27.50
2018-02-21T07:25:47.285Z,26.73
2018-02-21T07:28:15.594Z,26.57
2018-02-21T07:30:50.152Z,27.07
2018-02-21T07:33:22.863Z,26.47
2018-02-21T07:35:55.008Z,27.50
2018-02-21T07:38:23.291Z,27.30
2018-02-21T07:40:52.771Z,26.83
2018-02-21T07:43:21.578Z,26.90
2018-02-21T07:45:51.123Z,27.90
2018-02-21T07:48:20.706Z,26.93
2018-02-21T07:50:52.706Z,26.80
2018-02-21T07:53:24.142Z,28.07
2018-02-21T07:56:44.217Z,31.27
2018-02-21T07:59:13.062Z,31.90
2018-02-21T08:01:41.912Z,32.47
2018-02-21T08:04:10.522Z,32.30
2018-02-21T08:06:38.794Z,33.20
2018-02-21T08:09:07.075Z,34.73
2018-02-21T08:11:36.466Z,36.00
2018-02-21T08:14:06.735Z,36.63
2018-02-21T08:16:37.730Z,39.60
2018-02-21T08:19:07.800Z,38.97
2018-02-21T08:21:37.337Z,37.40
2018-02-21T08:24:08.551Z,39.97
2018-02-21T08:26:37.666Z,39.93
2018-02-21T08:29:05.964Z,39.13
2018-02-21T08:31:39.092Z,40.93
2018-02-21T08:34:08.812Z,39.87
2018-02-21T08:36:49.590Z,40.37
2018-02-21T08:39:21.997Z,39.27
2018-02-21T08:41:53.858Z,38.07
2018-02-21T08:44:24.386Z,38.07
2018-02-21T08:46:53.994Z,37.60
2018-02-21T08:49:23.229Z,37.10
2018-02-21T08:51:52.060Z,39.20
2018-02-21T08:54:22.841Z,37.63
2018-02-21T08:57:29.379Z,38.10
2018-02-21T09:00:01.769Z,37.83
2018-02-21T09:02:30.428Z,39.10
2018-02-21T09:05:02.232Z,37.97
2018-02-21T09:07:30.654Z,38.83
2018-02-21T09:10:02.659Z,40.37
2018-02-21T09:12:31.860Z,39.03
2018-02-21T09:15:02.585Z,37.37
2018-02-21T09:17:34.769Z,38.70
2018-02-21T09:20:11.564Z,38.67
2018-02-21T09:22:46.209Z,35.77
2018-02-21T09:25:19.319Z,38.37
2018-02-21T09:28:04.540Z,37.90
2018-02-21T09:30:32.873Z,35.47
2018-02-21T09:33:07.113Z,40.17
2018-02-21T09:35:40.998Z,39.53
2018-02-21T09:38:10.892Z,39.40
2018-02-21T09:40:39.168Z,39.30
2018-02-21T09:43:07.941Z,39.40
2018-02-21T09:45:36.228Z,39.87
2018-02-21T09:48:04.815Z,37.10
2018-02-21T09:50:34.892Z,38.43
2018-02-21T09:53:10.996Z,36.53
2018-02-21T09:55:46.932Z,39.50
2018-02-21T09:58:20.480Z,37.93
2018-02-21T10:00:56.336Z,38.53
2018-02-21T10:03:32.173Z,38.57
2018-02-21T10:06:00.768Z,38.87
2018-02-21T10:08:29.833Z,40.10
2018-02-21T10:10:58.646Z,39.57
2018-02-21T10:13:27.536Z,37.43
2018-02-21T10:15:55.820Z,37.30
2018-02-21T10:18:27.828Z,36.97
2018-02-21T10:21:00.877Z,37.83
2018-02-21T10:23:33.479Z,36.87
2018-02-21T10:26:01.758Z,35.17
2018-02-21T10:28:30.360Z,35.03
2018-02-21T10:30:59.237Z,33.27
2018-02-21T10:33:30.242Z,34.30
2018-02-21T10:36:00.219Z,33.73
2018-02-21T10:38:30.472Z,34.80
2018-02-21T10:40:58.902Z,35.43
2018-02-21T10:43:27.620Z,34.30
2018-02-21T10:45:55.889Z,35.90
2018-02-21T10:48:24.169Z,34.77
2018-02-21T10:50:56.939Z,35.03
2018-02-21T10:53:25.260Z,32.73
2018-02-21T10:55:53.553Z,33.17
2018-02-21T10:58:22.987Z,32.87
2018-02-21T11:00:57.915Z,33.83
2018-02-21T11:03:26.432Z,31.30
2018-02-21T11:05:57.667Z,36.13
2018-02-21T11:08:29.471Z,34.50
2018-02-21T11:11:02.394Z,32.43
2018-02-21T11:14:12.950Z,33.50
2018-02-21T11:16:48.522Z,36.47
2018-02-21T11:19:21.152Z,32.00
2018-02-21T11:21:50.645Z,33.83
2018-02-21T11:24:18.910Z,34.13
2018-02-21T11:26:48.353Z,32.47
2018-02-21T11:29:16.651Z,34.90
2018-02-21T11:31:45.031Z,32.80
2018-02-21T11:34:13.336Z,32.83
2018-02-21T11:36:41.624Z,33.57
2018-02-21T11:39:11.114Z,34.47
2018-02-21T11:41:39.431Z,32.70
2018-02-21T11:44:07.778Z,33.37
2018-02-21T11:46:38.922Z,31.23
2018-02-21T11:49:14.778Z,33.37
2018-02-21T11:51:43.652Z,32.97
2018-02-21T11:54:11.958Z,32.27
2018-02-21T11:56:41.120Z,28.57
2018-02-21T11:59:11.165Z,31.83
2018-02-21T12:01:39.499Z,32.80
2018-02-21T12:04:09.927Z,30.10
2018-02-21T12:06:45.838Z,29.20
2018-02-21T12:09:18.734Z,27.63
2018-02-21T12:11:48.724Z,29.30
2018-02-21T12:14:20.037Z,27.77
2018-02-21T12:16:48.418Z,27.60
2018-02-21T12:19:16.710Z,27.77
2018-02-21T12:21:45.535Z,26.20
2018-02-21T12:24:21.694Z,24.57
2018-02-21T12:26:50.427Z,24.83
2018-02-21T12:29:19.588Z,24.80
2018-02-21T12:31:58.984Z,28.53
2018-02-21T12:34:28.275Z,26.93
2018-02-21T12:36:59.401Z,27.00
2018-02-21T12:39:36.299Z,28.27
2018-02-21T12:42:05.108Z,24.27
2018-02-21T12:45:09.147Z,27.17
2018-02-21T12:47:37.543Z,26.20
2018-02-21T12:50:06.796Z,26.50
2018-02-21T12:52:35.440Z,25.10
2018-02-21T12:55:10.548Z,28.27
2018-02-21T12:57:43.832Z,25.67
2018-02-21T13:00:13.861Z,30.10
2018-02-21T13:02:42.840Z,29.37
2018-02-21T13:05:11.165Z,28.20
2018-02-21T13:07:39.566Z,27.23
2018-02-21T13:10:08.770Z,26.80
2018-02-21T13:12:43.161Z,26.23
2018-02-21T13:15:12.877Z,27.90
2018-02-21T13:17:47.189Z,28.47
2018-02-21T13:20:16.610Z,28.17
2018-02-21T13:22:45.678Z,26.97
2018-02-21T13:25:15.289Z,27.67
2018-02-21T13:27:43.874Z,28.50
2018-02-21T13:30:47.636Z,28.10
2018-02-21T13:33:16.447Z,36.73
2018-02-21T13:35:45.052Z,31.50
2018-02-21T13:38:14.821Z,48.13
2018-02-21T13:40:47.620Z,34.60
2018-02-21T13:43:22.459Z,41.70
2018-02-21T13:45:51.067Z,28.23
2018-02-21T13:48:19.874Z,28.27
2018-02-21T13:50:49.108Z,29.27
2018-02-21T13:53:17.391Z,28.93
2018-02-21T13:55:46.172Z,27.83
2018-02-21T13:58:17.816Z,29.77
2018-02-21T14:00:51.627Z,29.23
2018-02-21T14:03:23.769Z,29.63
2018-02-21T14:05:55.618Z,28.63
2018-02-21T14:08:25.352Z,29.17
2018-02-21T14:10:56.051Z,26.87
2018-02-21T14:13:26.344Z,29.57
2018-02-21T14:16:24.995Z,29.90
2018-02-21T14:18:53.612Z,28.03
2018-02-21T14:21:22.808Z,26.73
2018-02-21T14:23:51.107Z,28.13
2018-02-21T14:26:21.234Z,28.50
2018-02-21T14:28:51.660Z,28.07
2018-02-21T14:31:23.666Z,28.43
2018-02-21T14:33:54.159Z,30.97
2018-02-21T14:36:24.228Z,27.07
2018-02-21T14:38:52.799Z,30.97
2018-02-21T14:41:22.056Z,28.73
2018-02-21T14:43:51.832Z,27.20
2018-02-21T14:46:28.194Z,28.20
2018-02-21T14:48:56.894Z,28.70
2018-02-21T14:51:32.527Z,27.23
2018-02-21T14:54:03.715Z,29.93
2018-02-21T14:56:38.692Z,25.50
2018-02-21T14:59:09.253Z,27.47
2018-02-21T15:01:58.758Z,27.27
2018-02-21T15:04:28.178Z,25.93
2018-02-21T15:06:59.435Z,23.70
2018-02-21T15:09:31.141Z,26.20
2018-02-21T15:12:01.892Z,48.17
2018-02-21T15:14:31.866Z,39.80
2018-02-21T15:17:00.608Z,25.97
2018-02-21T15:19:30.198Z,26.47
2018-02-21T15:21:59.503Z,28.60
2018-02-21T15:24:32.380Z,30.07
2018-02-21T15:27:08.863Z,23.17
2018-02-21T15:29:42.309Z,23.23
2018-02-21T15:32:12.474Z,21.77
2018-02-21T15:34:42.245Z,19.93
2018-02-21T15:37:12.992Z,21.23
2018-02-21T15:39:41.813Z,20.97
2018-02-21T15:42:10.592Z,21.33
2018-02-21T15:44:39.699Z,23.40
2018-02-21T15:47:22.046Z,20.77
2018-02-21T15:49:50.797Z,21.57
2018-02-21T15:52:20.584Z,21.07
2018-02-21T15:54:48.927Z,20.67
2018-02-21T15:57:17.471Z,21.33
2018-02-21T15:59:49.023Z,22.63
2018-02-21T16:02:29.945Z,21.80
2018-02-21T16:04:58.756Z,21.03
2018-02-21T16:07:27.561Z,23.80
2018-02-21T16:09:58.796Z,23.07
2018-02-21T16:12:29.292Z,23.43
2018-02-21T16:15:04.565Z,25.27
2018-02-21T16:20:56.023Z,26.83
2018-02-21T16:23:24.710Z,27.13
2018-02-21T16:25:54.404Z,26.37
2018-02-21T16:28:30.544Z,25.70
2018-02-21T16:31:01.210Z,25.73
2018-02-21T16:33:33.327Z,25.70
2018-02-21T16:36:02.486Z,25.40
2018-02-21T16:38:31.200Z,24.43
2018-02-21T16:40:59.856Z,23.33
2018-02-21T16:43:29.233Z,24.27
2018-02-21T16:46:00.985Z,24.60
2018-02-21T16:48:53.118Z,25.37
2018-02-21T16:51:21.506Z,22.73
2018-02-21T16:53:56.318Z,24.20
2018-02-21T16:56:24.614Z,25.03
2018-02-21T16:58:53.808Z,24.37
2018-02-21T17:01:27.287Z,26.37
2018-02-21T17:04:18.060Z,25.70
2018-02-21T17:06:48.051Z,26.33
2018-02-21T17:09:17.727Z,26.20
2018-02-21T17:11:49.369Z,27.83
2018-02-21T17:14:22.068Z,28.13
2018-02-21T17:16:51.448Z,30.23
2018-02-21T17:19:42.504Z,29.17
2018-02-21T17:22:10.820Z,28.73
2018-02-21T17:24:39.611Z,30.07
2018-02-21T17:27:13.309Z,30.17
2018-02-21T17:29:48.633Z,30.57
2018-02-21T17:32:23.804Z,31.10
2018-02-21T17:35:13.935Z,29.30
2018-02-21T17:37:43.190Z,29.57
2018-02-21T17:40:11.694Z,29.00
2018-02-21T17:42:41.346Z,29.77
2018-02-21T17:45:14.620Z,29.23
2018-02-21T17:47:45.567Z,29.80
2018-02-21T17:50:39.518Z,27.90
2018-02-21T17:53:09.231Z,29.10
2018-02-21T17:55:38.116Z,27.57
2018-02-21T17:58:06.839Z,28.33
2018-02-21T18:00:38.852Z,29.30
2018-02-21T18:03:17.706Z,28.53
2018-02-21T18:05:48.448Z,28.23
2018-02-21T18:08:19.210Z,27.93
2018-02-21T18:10:47.619Z,26.77
2018-02-21T18:13:16.003Z,27.23
2018-02-21T18:15:44.752Z,26.90
2018-02-21T18:18:13.795Z,28.40
2018-02-21T18:21:04.592Z,27.60
2018-02-21T18:23:32.887Z,25.93
2018-02-21T18:26:02.079Z,26.13
2018-02-21T18:28:30.729Z,24.77
2018-02-21T18:30:59.049Z,25.20
2018-02-21T18:33:32.459Z,25.60
2018-02-21T18:39:25.363Z,21.90
2018-02-21T18:41:53.665Z,22.87
2018-02-21T18:44:23.120Z,20.70
2018-02-21T18:46:52.606Z,21.63
2018-02-21T18:49:21.361Z,21.30
2018-02-21T18:51:51.184Z,21.20
2018-02-21T18:54:19.907Z,20.83
2018-02-21T18:56:48.875Z,21.67
2018-02-21T18:59:18.618Z,21.27
2018-02-21T19:01:46.896Z,20.43
2018-02-21T19:04:17.000Z,19.87
2018-02-21T19:06:46.587Z,20.43
2018-02-21T19:09:14.901Z,20.70
2018-02-21T19:11:43.578Z,21.03
2018-02-21T19:14:12.510Z,22.10
2018-02-21T19:16:41.734Z,22.70
2018-02-21T19:19:12.803Z,22.73
2018-02-21T19:21:42.454Z,22.90
2018-02-21T19:24:10.963Z,22.50
2018-02-21T19:26:39.307Z,23.90
2018-02-21T19:29:08.142Z,23.10
2018-02-21T19:31:38.903Z,23.87
2018-02-21T19:34:07.982Z,23.20
2018-02-21T19:36:38.747Z,25.00
2018-02-21T19:39:07.577Z,24.33
2018-02-21T19:41:36.251Z,23.90
2018-02-21T19:44:05.069Z,23.70
2018-02-21T19:46:37.752Z,25.30
2018-02-21T19:49:06.942Z,29.67
2018-02-21T19:51:35.307Z,39.33
2018-02-21T19:54:03.616Z,28.23
2018-02-21T19:56:32.519Z,25.03
2018-02-21T19:59:00.839Z,26.03
2018-02-21T20:01:31.323Z,25.83
2018-02-21T20:04:03.355Z,26.00
2018-02-21T20:06:37.015Z,25.93
2018-02-21T20:09:07.060Z,25.13
2018-02-21T20:11:35.709Z,24.80
2018-02-21T20:14:04.424Z,25.57
2018-02-21T20:16:32.703Z,25.33
2018-02-21T20:19:02.337Z,24.67
2018-02-21T20:21:45.877Z,26.73
2018-02-21T20:24:14.190Z,25.43
2018-02-21T20:26:43.140Z,23.70
2018-02-21T20:29:19.317Z,23.30
2018-02-21T20:31:54.708Z,25.07
2018-02-21T20:34:23.066Z,25.90
2018-02-21T20:36:52.133Z,25.67
2018-02-21T20:39:20.436Z,24.57
2018-02-21T20:41:49.742Z,24.73
2018-02-21T20:44:19.695Z,23.07
2018-02-21T20:46:52.850Z,24.17
2018-02-21T20:49:29.140Z,24.73
2018-02-21T20:52:20.418Z,24.53
2018-02-21T20:54:49.688Z,24.47
2018-02-21T20:57:19.692Z,24.03
2018-02-21T20:59:49.134Z,23.43
2018-02-21T21:02:19.481Z,22.80
2018-02-21T21:04:49.404Z,23.50
2018-02-21T21:07:18.223Z,24.80
2018-02-21T21:09:46.941Z,24.57
2018-02-21T21:12:16.267Z,23.60
2018-02-21T21:14:44.773Z,24.50
2018-02-21T21:17:14.004Z,25.13
2018-02-21T21:19:44.320Z,23.50
2018-02-21T21:22:17.125Z,24.80
2018-02-21T21:24:46.482Z,24.80
2018-02-21T21:27:15.737Z,26.13
2018-02-21T21:29:44.191Z,25.50
2018-02-21T21:32:17.044Z,25.23
2018-02-21T21:34:51.211Z,25.67
2018-02-21T21:37:25.576Z,25.03
2018-02-21T21:39:57.784Z,24.10
2018-02-21T21:42:28.939Z,24.40
2018-02-21T21:44:58.910Z,23.70
2018-02-21T21:47:27.867Z,23.83
2018-02-21T21:49:56.177Z,22.00
2018-02-21T21:52:24.456Z,22.37
2018-02-21T21:54:52.783Z,20.20
2018-02-21T21:57:22.990Z,20.10
2018-02-21T21:59:51.333Z,19.67
2018-02-21T22:02:19.662Z,19.53
2018-02-21T22:04:48.940Z,18.60
2018-02-21T22:07:18.943Z,17.67
2018-02-21T22:09:48.881Z,18.87
2018-02-21T22:12:17.225Z,16.90
2018-02-21T22:14:46.682Z,16.87
2018-02-21T22:17:21.651Z,17.33
2018-02-21T22:19:56.994Z,16.47
2018-02-21T22:22:25.317Z,15.13
2018-02-21T22:24:56.811Z,16.40
2018-02-21T22:27:26.542Z,16.77
2018-02-21T22:29:57.245Z,16.20
2018-02-21T22:32:26.306Z,15.13
2018-02-21T22:34:55.791Z,16.43
2018-02-21T22:37:24.568Z,14.93
2018-02-21T22:39:57.362Z,15.77
2018-02-21T22:42:31.726Z,15.13
2018-02-21T22:45:04.492Z,14.83
2018-02-21T22:47:35.691Z,15.20
2018-02-21T22:50:06.606Z,15.53
2018-02-21T22:52:36.650Z,15.30
2018-02-21T22:55:06.020Z,13.80
2018-02-21T22:57:34.309Z,14.33
2018-02-21T23:00:08.188Z,13.90
2018-02-21T23:02:43.541Z,14.13
2018-02-21T23:05:12.601Z,12.53
2018-02-21T23:07:41.656Z,13.47
2018-02-21T23:10:11.350Z,10.80
2018-02-21T23:12:40.652Z,11.60
2018-02-21T23:15:14.761Z,12.07
2018-02-21T23:17:48.172Z,11.63
2018-02-21T23:20:16.910Z,11.10
2018-02-21T23:22:46.192Z,12.27
2018-02-21T23:25:17.010Z,12.60
2018-02-21T23:27:45.318Z,13.00
2018-02-21T23:30:15.833Z,12.57
2018-02-21T23:32:46.221Z,12.67
2018-02-21T23:35:14.567Z,13.47
2018-02-21T23:37:42.840Z,13.40
2018-02-21T23:40:11.689Z,14.47
2018-02-21T23:42:43.684Z,14.57
2018-02-21T23:45:14.896Z,14.20
2018-02-21T23:47:43.446Z,15.00
2018-02-21T23:50:11.746Z,17.17
2018-02-21T23:52:41.474Z,15.47
2018-02-21T23:55:24.373Z,15.63
2018-02-21T23:57:53.539Z,15.57
